KL35 Airport Information

Runway Information
Runway 08 Length 5850 ft width 75 ft
Elevation 6750 ft Threshold 370 ft Heading 90
Runway 26 Length 5850 ft Width 75 ft
Elevation 6751 ft Threshold 600 ft Heading 270
Airport Frequencies
Type AWOS Name AWOS 3 Frequency 135.925 MHZ
Type CNTR Name LOS ANGELE Frequency 126.35 MHZ
Type UNIC Name CTAF/UNICO Frequency 122.725 MHZ
Airport Navaids
Airport Weather Information & NOTAM
ADDS - METARS form results

(1014 UTC 15 December 2018)
Data provider http://aviationweather.gov/metar/data/
 
METAR text: KL35 150955Z AUTO 00000KT 10SM OVC110 00/M05 A3021 RMK AO2
Conditions at: KL35 (BIG BEAR CITY , CA, US) observed 0955 UTC 15 December 2018
Temperature: 0.0°C (32°F)
Dewpoint: -5.0°C (23°F) [RH = 69%]
Pressure (altimeter): 30.21 inches Hg (1023.1 mb)
Winds: calm
Visibility: 10 or more miles (16+ km)
Ceiling: 11000 feet AGL
Clouds: overcast cloud deck at 11000 feet AGL
Weather: automated observation with no human augmentation;
there may or may not be significant weather present at this time

METAR text: KL35 150935Z AUTO 00000KT 10SM OVC110 00/M05 A3022 RMK AO2
Conditions at: KL35 (BIG BEAR CITY , CA, US) observed 0935 UTC 15 December 2018
Temperature: 0.0°C (32°F)
Dewpoint: -5.0°C (23°F) [RH = 69%]
Pressure (altimeter): 30.22 inches Hg (1023.5 mb)
Winds: calm
Visibility: 10 or more miles (16+ km)
Ceiling: 11000 feet AGL
Clouds: overcast cloud deck at 11000 feet AGL
Weather: automated observation with no human augmentation;
there may or may not be significant weather present at this time

METAR text: KL35 150915Z AUTO 00000KT 10SM OVC110 00/M04 A3022 RMK AO2
Conditions at: KL35 (BIG BEAR CITY , CA, US) observed 0915 UTC 15 December 2018
Temperature: 0.0°C (32°F)
Dewpoint: -4.0°C (25°F) [RH = 74%]
Pressure (altimeter): 30.22 inches Hg (1023.5 mb)
Winds: calm
Visibility: 10 or more miles (16+ km)
Ceiling: 11000 feet AGL
Clouds: overcast cloud deck at 11000 feet AGL
Weather: automated observation with no human augmentation;
there may or may not be significant weather present at this time